createdAt,value
2018-10-16T00:00:04.455Z,11.95
2018-10-16T00:02:31.878Z,11.91
2018-10-16T00:04:59.379Z,11.90
2018-10-16T00:07:26.821Z,11.91
2018-10-16T00:09:54.242Z,11.96
2018-10-16T00:12:21.703Z,11.94
2018-10-16T00:14:49.050Z,11.87
2018-10-16T00:17:16.528Z,11.79
2018-10-16T00:19:44.014Z,11.73
2018-10-16T00:22:11.401Z,11.70
2018-10-16T00:24:38.890Z,11.66
2018-10-16T00:27:06.336Z,11.58
2018-10-16T00:29:33.775Z,11.51
2018-10-16T00:32:01.213Z,11.45
2018-10-16T00:34:28.617Z,11.45
2018-10-16T00:36:56.219Z,11.42
2018-10-16T00:39:23.624Z,11.42
2018-10-16T00:41:55.214Z,11.37
2018-10-16T00:44:22.675Z,11.32
2018-10-16T00:46:50.151Z,11.27
2018-10-16T00:49:17.649Z,11.22
2018-10-16T00:51:45.207Z,11.17
2018-10-16T00:54:12.611Z,11.19
2018-10-16T00:56:40.064Z,11.16
2018-10-16T00:59:07.799Z,11.16
2018-10-16T01:01:35.493Z,11.09
2018-10-16T01:04:05.095Z,11.04
2018-10-16T01:06:33.532Z,10.99
2018-10-16T01:09:00.979Z,10.95
2018-10-16T01:11:28.438Z,10.91
2018-10-16T01:13:56.828Z,10.90
2018-10-16T01:16:24.374Z,10.87
2018-10-16T01:18:52.078Z,10.83
2018-10-16T01:21:20.018Z,10.80
2018-10-16T01:23:47.416Z,10.77
2018-10-16T01:26:14.865Z,10.74
2018-10-16T01:28:42.248Z,10.71
2018-10-16T01:31:09.800Z,10.71
2018-10-16T01:33:38.068Z,10.68
2018-10-16T01:36:06.270Z,10.67
2018-10-16T01:38:33.700Z,10.66
2018-10-16T01:41:01.254Z,10.65
2018-10-16T01:43:28.649Z,10.66
2018-10-16T01:45:56.128Z,10.68
2018-10-16T01:48:23.521Z,10.70
2018-10-16T01:50:51.075Z,10.67
2018-10-16T01:53:18.465Z,10.71
2018-10-16T01:55:45.927Z,10.77
2018-10-16T01:58:13.492Z,10.85
2018-10-16T02:00:41.737Z,10.95
2018-10-16T02:03:09.191Z,10.96
2018-10-16T02:05:36.923Z,10.98
2018-10-16T02:08:05.190Z,11.06
2018-10-16T02:10:32.649Z,11.15
2018-10-16T02:13:00.942Z,11.25
2018-10-16T02:15:28.507Z,11.36
2018-10-16T02:17:55.930Z,11.54
2018-10-16T02:20:23.370Z,11.62
2018-10-16T02:22:50.774Z,11.65
2018-10-16T02:25:18.221Z,11.57
2018-10-16T02:27:45.696Z,11.49
2018-10-16T02:30:13.231Z,11.43
2018-10-16T02:32:40.675Z,11.31
2018-10-16T02:35:09.158Z,11.20
2018-10-16T02:37:36.595Z,11.10
2018-10-16T02:40:04.951Z,11.01
2018-10-16T02:42:32.379Z,10.97
2018-10-16T02:44:59.851Z,10.90
2018-10-16T02:47:27.247Z,10.82
2018-10-16T02:49:54.653Z,10.74
2018-10-16T02:52:22.048Z,10.70
2018-10-16T02:54:49.469Z,10.64
2018-10-16T02:57:17.074Z,10.58
2018-10-16T02:59:44.516Z,10.54
2018-10-16T03:02:11.983Z,10.50
2018-10-16T03:04:39.467Z,10.46
2018-10-16T03:07:07.075Z,10.37
2018-10-16T03:09:34.533Z,10.34
2018-10-16T03:12:02.303Z,10.27
2018-10-16T03:14:29.790Z,10.19
2018-10-16T03:16:57.247Z,10.15
2018-10-16T03:19:24.944Z,10.10
2018-10-16T03:21:52.406Z,10.03
2018-10-16T03:24:19.850Z,10.00
2018-10-16T03:26:47.292Z,9.96
2018-10-16T03:29:14.678Z,9.93
2018-10-16T03:31:42.174Z,9.92
2018-10-16T03:34:09.792Z,9.97
2018-10-16T03:36:38.276Z,10.04
2018-10-16T03:39:07.802Z,10.12
2018-10-16T03:41:35.239Z,10.16
2018-10-16T03:44:07.149Z,10.22
2018-10-16T03:46:35.009Z,10.27
2018-10-16T03:49:02.389Z,10.28
2018-10-16T03:51:29.887Z,10.28
2018-10-16T03:53:57.280Z,10.30
2018-10-16T03:56:25.718Z,10.31
2018-10-16T03:58:53.178Z,10.35
2018-10-16T04:01:21.049Z,10.35
2018-10-16T04:03:48.893Z,10.32
2018-10-16T04:06:16.388Z,10.38
2018-10-16T04:08:43.763Z,10.40
2018-10-16T04:11:11.289Z,10.39
2018-10-16T04:13:38.695Z,10.38
2018-10-16T04:16:06.556Z,10.41
2018-10-16T04:18:33.944Z,10.43
2018-10-16T04:21:01.439Z,10.41
2018-10-16T04:23:28.883Z,10.42
2018-10-16T04:25:56.321Z,10.42
2018-10-16T04:28:23.813Z,10.42
2018-10-16T04:30:51.257Z,10.40
2018-10-16T04:33:18.633Z,10.37
2018-10-16T04:35:46.049Z,10.33
2018-10-16T04:38:13.499Z,10.32
2018-10-16T04:40:41.083Z,10.30
2018-10-16T04:43:08.495Z,10.27
2018-10-16T04:45:35.944Z,10.25
2018-10-16T04:48:03.410Z,10.24
2018-10-16T04:50:30.803Z,10.24
2018-10-16T04:52:58.605Z,10.27
2018-10-16T04:55:26.027Z,10.26
2018-10-16T04:57:54.312Z,10.28
2018-10-16T05:00:21.757Z,10.28
2018-10-16T05:02:49.197Z,10.27
2018-10-16T05:05:20.409Z,10.28
2018-10-16T05:07:48.255Z,10.30
2018-10-16T05:10:15.667Z,10.29
2018-10-16T05:12:43.084Z,10.28
2018-10-16T05:15:14.456Z,10.27
2018-10-16T05:17:41.834Z,10.27
2018-10-16T05:20:09.301Z,10.27
2018-10-16T05:22:36.783Z,10.24
2018-10-16T05:25:05.006Z,10.22
2018-10-16T05:27:32.503Z,10.23
2018-10-16T05:29:59.922Z,10.19
2018-10-16T05:32:27.516Z,10.15
2018-10-16T05:34:54.890Z,10.12
2018-10-16T05:37:22.361Z,10.12
2018-10-16T05:39:49.742Z,10.08
2018-10-16T05:42:17.277Z,10.06
2018-10-16T05:44:44.676Z,10.03
2018-10-16T05:47:12.124Z,10.01
2018-10-16T05:49:39.497Z,9.97
2018-10-16T05:52:07.068Z,9.96
2018-10-16T05:54:34.453Z,9.96
2018-10-16T05:57:01.870Z,9.98
2018-10-16T05:59:29.346Z,10.05
2018-10-16T06:01:56.764Z,10.12
2018-10-16T06:04:24.158Z,10.24
2018-10-16T06:06:51.650Z,10.38
2018-10-16T06:09:19.054Z,10.47
2018-10-16T06:11:46.534Z,10.58
2018-10-16T06:14:14.076Z,10.69
2018-10-16T06:16:41.494Z,10.86
2018-10-16T06:19:09.023Z,10.98
2018-10-16T06:21:36.464Z,11.22
2018-10-16T06:24:03.880Z,12.29
2018-10-16T06:26:31.471Z,13.11
2018-10-16T06:28:58.842Z,13.47
2018-10-16T06:31:26.286Z,13.66
2018-10-16T06:33:53.774Z,13.70
2018-10-16T06:36:21.286Z,13.75
2018-10-16T06:38:48.796Z,13.82
2018-10-16T06:41:16.325Z,14.10
2018-10-16T06:43:43.924Z,14.79
2018-10-16T06:46:11.410Z,15.18
2018-10-16T06:48:39.191Z,15.27
2018-10-16T06:51:06.298Z,15.50
2018-10-16T06:53:33.682Z,15.49
2018-10-16T06:56:01.166Z,15.27
2018-10-16T06:58:28.616Z,15.08
2018-10-16T07:00:56.040Z,14.95
2018-10-16T07:03:23.439Z,15.48
2018-10-16T07:05:50.891Z,17.35
2018-10-16T07:08:18.249Z,19.08
2018-10-16T07:10:45.642Z,19.81
2018-10-16T07:13:13.080Z,19.94
2018-10-16T07:15:40.481Z,21.25
2018-10-16T07:18:07.816Z,23.36
2018-10-16T07:20:35.230Z,25.41
2018-10-16T07:23:02.618Z,27.11
2018-10-16T07:25:36.890Z,28.48
2018-10-16T07:28:04.375Z,29.72
2018-10-16T07:30:32.030Z,30.78
2018-10-16T07:32:59.638Z,31.57
2018-10-16T07:35:27.070Z,32.27
2018-10-16T07:37:54.576Z,32.82
2018-10-16T07:40:22.009Z,33.23
2018-10-16T07:42:49.426Z,33.59
2018-10-16T07:45:16.907Z,33.88
2018-10-16T07:47:44.310Z,33.94
2018-10-16T07:50:12.193Z,34.49
2018-10-16T07:52:39.674Z,34.78
2018-10-16T07:55:08.869Z,35.07
2018-10-16T07:57:36.298Z,35.12
2018-10-16T08:00:04.054Z,35.42
2018-10-16T08:02:31.554Z,35.85
2018-10-16T08:04:58.923Z,36.31
2018-10-16T08:07:26.352Z,36.30
2018-10-16T08:09:53.802Z,36.64
2018-10-16T08:12:21.348Z,36.90
2018-10-16T08:14:48.803Z,37.01
2018-10-16T08:17:16.378Z,36.74
2018-10-16T08:19:43.786Z,37.09
2018-10-16T08:22:11.208Z,37.48
2018-10-16T08:24:38.615Z,37.34
2018-10-16T08:27:06.029Z,37.28
2018-10-16T08:29:33.448Z,37.27
2018-10-16T08:32:01.006Z,37.16
2018-10-16T08:34:28.419Z,37.01
2018-10-16T08:36:55.907Z,36.91
2018-10-16T08:39:27.111Z,37.17
2018-10-16T08:44:11.869Z,37.50
2018-10-16T08:46:50.810Z,36.99
2018-10-16T08:50:31.245Z,36.44
2018-10-16T08:52:58.762Z,35.59
2018-10-16T08:55:26.167Z,35.14
2018-10-16T08:57:53.696Z,33.92
2018-10-16T09:00:21.227Z,31.87
2018-10-16T09:02:48.818Z,29.69
2018-10-16T09:05:16.232Z,27.81
2018-10-16T09:07:43.725Z,26.15
2018-10-16T09:10:11.233Z,25.05
2018-10-16T09:12:38.634Z,23.88
2018-10-16T09:15:06.801Z,22.90
2018-10-16T09:17:34.314Z,22.12
2018-10-16T09:20:01.841Z,21.69
2018-10-16T09:22:30.247Z,21.21
2018-10-16T09:24:57.672Z,20.63
2018-10-16T09:27:25.121Z,20.32
2018-10-16T09:29:52.567Z,20.09
2018-10-16T09:32:19.985Z,19.94
2018-10-16T09:34:47.357Z,19.94
2018-10-16T09:37:15.017Z,19.79
2018-10-16T09:39:42.505Z,19.73
2018-10-16T09:42:09.986Z,19.76
2018-10-16T09:44:37.428Z,19.65
2018-10-16T09:47:04.873Z,19.73
2018-10-16T09:49:32.290Z,19.69
2018-10-16T09:51:59.700Z,19.64
2018-10-16T09:54:27.176Z,19.68
2018-10-16T09:56:54.584Z,19.73
2018-10-16T09:59:21.990Z,19.76
2018-10-16T10:01:53.750Z,19.79
2018-10-16T10:04:21.234Z,19.81
2018-10-16T10:06:48.690Z,19.82
2018-10-16T10:09:16.102Z,19.79
2018-10-16T10:11:43.510Z,19.80
2018-10-16T10:14:11.000Z,19.84
2018-10-16T10:16:38.822Z,19.86
2018-10-16T10:19:06.377Z,19.88
2018-10-16T10:21:33.976Z,19.86
2018-10-16T10:24:01.477Z,19.96
2018-10-16T10:26:28.929Z,20.04
2018-10-16T10:28:56.838Z,20.12
2018-10-16T10:31:24.322Z,20.21
2018-10-16T10:33:51.722Z,20.31
2018-10-16T10:36:19.218Z,20.40
2018-10-16T10:38:46.757Z,20.46
2018-10-16T10:41:14.198Z,20.52
2018-10-16T10:43:41.621Z,20.58
2018-10-16T10:46:09.080Z,20.65
2018-10-16T10:48:37.106Z,20.72
2018-10-16T10:51:04.914Z,20.72
2018-10-16T10:53:32.177Z,20.77
2018-10-16T10:55:59.623Z,20.82
2018-10-16T10:58:27.101Z,20.89
2018-10-16T11:00:54.621Z,20.97
2018-10-16T11:03:22.204Z,21.02
2018-10-16T11:05:49.592Z,21.05
2018-10-16T11:08:17.059Z,21.06
2018-10-16T11:10:44.516Z,21.07
2018-10-16T11:13:12.005Z,21.13
2018-10-16T11:15:39.428Z,21.22
2018-10-16T11:18:06.878Z,21.28
2018-10-16T11:20:34.284Z,21.36
2018-10-16T11:23:01.670Z,21.39
2018-10-16T11:25:29.071Z,21.48
2018-10-16T11:27:56.680Z,21.55
2018-10-16T11:30:24.259Z,21.60
2018-10-16T11:32:51.710Z,21.66
2018-10-16T11:35:19.160Z,21.67
2018-10-16T11:37:46.652Z,21.75
2018-10-16T11:40:14.105Z,21.86
2018-10-16T11:42:42.093Z,21.94
2018-10-16T11:45:09.696Z,22.13
2018-10-16T11:47:38.002Z,22.10
2018-10-16T11:50:06.949Z,22.26
2018-10-16T11:52:34.386Z,22.28
2018-10-16T11:55:01.812Z,22.29
2018-10-16T11:57:29.310Z,22.35
2018-10-16T11:59:57.040Z,22.41
2018-10-16T12:02:24.503Z,22.47
2018-10-16T12:04:51.934Z,22.52
2018-10-16T12:07:19.406Z,22.60
2018-10-16T12:09:46.794Z,22.66
2018-10-16T12:12:14.260Z,22.69
2018-10-16T12:14:41.758Z,22.75
2018-10-16T12:17:45.376Z,22.79
2018-10-16T12:20:17.554Z,22.90
2018-10-16T12:22:45.058Z,22.97
2018-10-16T12:25:12.562Z,23.02
2018-10-16T12:27:39.908Z,23.11
2018-10-16T12:30:07.694Z,23.18
2018-10-16T12:32:35.693Z,23.17
2018-10-16T12:35:03.138Z,23.23
2018-10-16T12:37:30.550Z,23.30
2018-10-16T12:39:58.065Z,23.29
2018-10-16T12:42:25.456Z,23.33
2018-10-16T12:44:52.953Z,23.39
2018-10-16T12:47:20.417Z,23.40
2018-10-16T12:49:47.808Z,23.42
2018-10-16T12:52:15.322Z,23.49
2018-10-16T12:54:43.146Z,23.53
2018-10-16T12:57:10.579Z,23.52
2018-10-16T12:59:38.011Z,23.53
2018-10-16T13:02:05.523Z,23.57
2018-10-16T13:04:32.876Z,23.55
2018-10-16T13:07:08.807Z,23.54
2018-10-16T13:09:36.254Z,23.59
2018-10-16T13:12:03.714Z,23.66
2018-10-16T13:14:31.254Z,23.70
2018-10-16T13:16:58.754Z,23.77
2018-10-16T13:19:26.117Z,23.82
2018-10-16T13:21:53.630Z,23.88
2018-10-16T13:24:21.150Z,23.89
2018-10-16T13:26:48.554Z,23.90
2018-10-16T13:29:16.203Z,23.92
2018-10-16T13:31:43.521Z,23.97
2018-10-16T13:34:10.981Z,24.04
2018-10-16T13:36:38.610Z,24.03
2018-10-16T13:39:07.475Z,24.02
2018-10-16T13:41:34.905Z,23.99
2018-10-16T13:44:02.622Z,23.97
2018-10-16T13:46:30.060Z,24.01
2018-10-16T13:48:57.448Z,24.07
2018-10-16T13:51:24.912Z,24.13
2018-10-16T13:53:52.302Z,24.19
2018-10-16T13:56:20.018Z,24.29
2018-10-16T13:58:47.474Z,24.39
2018-10-16T14:01:14.893Z,24.42
2018-10-16T14:03:42.410Z,24.48
2018-10-16T14:06:09.862Z,24.43
2018-10-16T14:08:37.266Z,24.30
2018-10-16T14:11:04.918Z,24.17
2018-10-16T14:13:32.370Z,24.21
2018-10-16T14:15:59.774Z,24.19
2018-10-16T14:18:27.270Z,24.09
2018-10-16T14:20:54.683Z,23.97
2018-10-16T14:23:22.065Z,23.90
2018-10-16T14:25:49.561Z,23.94
2018-10-16T14:28:17.047Z,23.91
2018-10-16T14:30:44.554Z,23.91
2018-10-16T14:33:12.040Z,23.99
2018-10-16T14:35:39.470Z,24.04
2018-10-16T14:38:06.884Z,24.13
2018-10-16T14:40:34.526Z,24.19
2018-10-16T14:45:28.832Z,24.38
2018-10-16T14:47:56.489Z,24.43
2018-10-16T14:50:23.946Z,24.56
2018-10-16T14:52:51.382Z,24.70
2018-10-16T14:55:18.791Z,24.78
2018-10-16T14:57:46.203Z,24.88
2018-10-16T15:00:13.660Z,25.00
2018-10-16T15:02:41.067Z,25.08
2018-10-16T15:05:09.626Z,25.10
2018-10-16T15:07:37.342Z,25.09
2018-10-16T15:10:05.950Z,25.02
2018-10-16T15:12:33.514Z,25.01
2018-10-16T15:15:01.982Z,24.99
2018-10-16T15:17:30.150Z,24.92
2018-10-16T15:19:57.905Z,24.85
2018-10-16T15:22:25.502Z,24.81
2018-10-16T15:24:52.945Z,24.68
2018-10-16T15:27:20.829Z,24.60
2018-10-16T15:29:48.229Z,24.54
2018-10-16T15:32:16.022Z,24.50
2018-10-16T15:34:43.505Z,24.47
2018-10-16T15:37:11.034Z,24.41
2018-10-16T15:39:38.446Z,24.32
2018-10-16T15:42:05.961Z,24.20
2018-10-16T15:44:34.040Z,24.17
2018-10-16T15:47:01.673Z,24.12
2018-10-16T15:49:29.157Z,24.09
2018-10-16T15:51:56.610Z,24.06
2018-10-16T15:54:24.080Z,23.99
2018-10-16T15:56:51.547Z,23.93
2018-10-16T15:59:19.146Z,23.86
2018-10-16T16:01:46.591Z,23.72
2018-10-16T16:04:14.945Z,23.60
2018-10-16T16:06:42.664Z,23.50
2018-10-16T16:09:10.355Z,23.38
2018-10-16T16:11:37.829Z,23.26
2018-10-16T16:14:05.310Z,23.19
2018-10-16T16:16:32.711Z,23.10
2018-10-16T16:19:00.130Z,23.04
2018-10-16T16:21:27.635Z,22.91
2018-10-16T16:23:55.163Z,22.83
2018-10-16T16:26:22.670Z,22.72
2018-10-16T16:28:49.974Z,22.59
2018-10-16T16:31:17.539Z,22.48
2018-10-16T16:33:45.065Z,22.30
2018-10-16T16:36:12.555Z,22.16
2018-10-16T16:38:40.079Z,22.05
2018-10-16T16:41:07.794Z,21.94
2018-10-16T16:43:35.241Z,21.84
2018-10-16T16:46:02.700Z,21.72
2018-10-16T16:48:30.261Z,21.66
2018-10-16T16:50:57.647Z,21.59
2018-10-16T16:53:25.079Z,21.52
2018-10-16T16:55:52.581Z,21.45
2018-10-16T16:58:19.963Z,21.37
2018-10-16T17:00:47.521Z,21.26
2018-10-16T17:03:15.080Z,21.17
2018-10-16T17:05:42.459Z,21.08
2018-10-16T17:08:10.074Z,21.16
2018-10-16T17:10:37.515Z,21.16
2018-10-16T17:13:04.966Z,21.06
2018-10-16T17:15:32.520Z,20.92
2018-10-16T17:17:59.987Z,20.74
2018-10-16T17:20:27.468Z,20.70
2018-10-16T17:22:55.097Z,20.62
2018-10-16T17:25:22.985Z,20.62
2018-10-16T17:27:50.095Z,20.55
2018-10-16T17:30:17.587Z,20.55
2018-10-16T17:32:45.473Z,20.49
2018-10-16T17:35:13.503Z,20.39
2018-10-16T17:37:42.245Z,20.35
2018-10-16T17:40:12.447Z,20.36
2018-10-16T17:42:40.077Z,20.30
2018-10-16T17:45:09.484Z,20.30
2018-10-16T17:47:37.708Z,20.27
2018-10-16T17:50:08.186Z,20.19
2018-10-16T17:52:35.884Z,20.10
2018-10-16T17:55:03.915Z,20.07
2018-10-16T17:57:31.559Z,19.97
2018-10-16T17:59:58.922Z,19.93
2018-10-16T18:02:26.429Z,19.87
2018-10-16T18:04:53.948Z,19.87
2018-10-16T18:07:21.438Z,19.83
2018-10-16T18:09:48.869Z,19.83
2018-10-16T18:12:16.318Z,19.80
2018-10-16T18:14:43.733Z,19.79
2018-10-16T18:17:11.194Z,19.75
2018-10-16T18:19:38.670Z,19.71
2018-10-16T18:22:06.235Z,19.72
2018-10-16T18:24:33.725Z,19.74
2018-10-16T18:27:01.538Z,19.67
2018-10-16T18:29:28.948Z,19.63
2018-10-16T18:31:56.518Z,19.57
2018-10-16T18:34:23.923Z,19.54
2018-10-16T18:36:51.344Z,19.46
2018-10-16T18:39:18.879Z,19.43
2018-10-16T18:41:46.430Z,19.39
2018-10-16T18:44:13.937Z,19.35
2018-10-16T18:46:41.455Z,19.30
2018-10-16T18:49:09.006Z,19.29
2018-10-16T18:51:36.616Z,19.26
2018-10-16T18:54:04.191Z,19.21
2018-10-16T18:56:31.646Z,19.22
2018-10-16T18:58:59.349Z,19.17
2018-10-16T19:01:26.954Z,19.16
2018-10-16T19:03:54.375Z,19.14
2018-10-16T19:06:22.011Z,19.07
2018-10-16T19:08:49.530Z,19.01
2018-10-16T19:11:17.056Z,18.96
2018-10-16T19:13:44.741Z,18.93
2018-10-16T19:16:12.582Z,18.88
2018-10-16T19:18:40.078Z,18.82
2018-10-16T19:21:07.888Z,18.74
2018-10-16T19:23:35.339Z,18.68
2018-10-16T19:26:02.928Z,18.66
2018-10-16T19:28:30.354Z,18.58
2018-10-16T19:30:58.062Z,18.57
2018-10-16T19:33:25.606Z,18.50
2018-10-16T19:35:53.013Z,18.47
2018-10-16T19:38:20.502Z,18.44
2018-10-16T19:40:47.949Z,18.38
2018-10-16T19:43:15.448Z,18.35
2018-10-16T19:45:43.333Z,18.36
2018-10-16T19:48:10.943Z,18.36
2018-10-16T19:50:38.519Z,18.33
2018-10-16T19:53:06.116Z,18.30
2018-10-16T19:55:33.680Z,18.25
2018-10-16T19:58:01.235Z,18.23
2018-10-16T20:00:28.739Z,18.19
2018-10-16T20:02:56.175Z,18.16
2018-10-16T20:05:23.547Z,18.17
2018-10-16T20:07:50.989Z,18.19
2018-10-16T20:10:18.383Z,18.20
2018-10-16T20:12:45.951Z,18.18
2018-10-16T20:15:13.403Z,18.16
2018-10-16T20:17:40.799Z,18.14
2018-10-16T20:20:09.067Z,18.10
2018-10-16T20:22:36.614Z,18.09
2018-10-16T20:25:04.731Z,18.06
2018-10-16T20:27:32.530Z,17.99
2018-10-16T20:30:00.003Z,17.97
2018-10-16T20:32:27.500Z,17.96
2018-10-16T20:34:54.933Z,17.96
2018-10-16T20:37:22.520Z,17.96
2018-10-16T20:39:50.008Z,17.94
2018-10-16T20:42:17.560Z,17.91
2018-10-16T20:44:44.952Z,17.87
2018-10-16T20:47:12.354Z,17.88
2018-10-16T20:49:39.767Z,17.88
2018-10-16T20:52:07.649Z,17.85
2018-10-16T20:54:35.035Z,17.79
2018-10-16T20:57:02.467Z,17.74
2018-10-16T20:59:29.939Z,17.71
2018-10-16T21:01:57.358Z,17.68
2018-10-16T21:04:24.842Z,17.70
2018-10-16T21:06:52.301Z,17.56
2018-10-16T21:09:19.816Z,17.50
2018-10-16T21:11:47.212Z,17.64
2018-10-16T21:14:14.627Z,17.53
2018-10-16T21:16:42.065Z,17.37
2018-10-16T21:19:09.675Z,17.25
2018-10-16T21:21:37.058Z,17.18
2018-10-16T21:24:04.738Z,17.13
2018-10-16T21:26:32.160Z,17.07
2018-10-16T21:28:59.570Z,17.04
2018-10-16T21:31:26.966Z,17.04
2018-10-16T21:33:54.328Z,17.05
2018-10-16T21:36:21.782Z,17.09
2018-10-16T21:38:49.166Z,17.08
2018-10-16T21:41:16.652Z,17.06
2018-10-16T21:43:44.084Z,17.03
2018-10-16T21:46:11.526Z,17.23
2018-10-16T21:48:38.934Z,17.34
2018-10-16T21:51:06.497Z,17.42
2018-10-16T21:53:33.862Z,17.37
2018-10-16T21:56:01.307Z,17.26
2018-10-16T21:58:28.874Z,17.16
2018-10-16T22:01:02.142Z,17.07
2018-10-16T22:03:29.517Z,16.98
2018-10-16T22:05:56.929Z,16.86
2018-10-16T22:08:24.357Z,16.78
2018-10-16T22:10:51.806Z,16.68
2018-10-16T22:13:19.291Z,16.57
2018-10-16T22:15:46.649Z,16.46
2018-10-16T22:18:14.035Z,16.38
2018-10-16T22:20:41.497Z,16.29
2018-10-16T22:23:08.991Z,16.24
2018-10-16T22:25:36.352Z,16.20
2018-10-16T22:28:03.980Z,16.17
2018-10-16T22:30:31.405Z,16.10
2018-10-16T22:32:58.783Z,16.05
2018-10-16T22:35:26.329Z,16.01
2018-10-16T22:37:53.846Z,16.00
2018-10-16T22:40:21.297Z,16.00
2018-10-16T22:42:48.817Z,15.99
2018-10-16T22:45:16.241Z,15.93
2018-10-16T22:47:43.669Z,15.88
2018-10-16T22:50:12.421Z,15.89
2018-10-16T22:52:39.909Z,15.82
2018-10-16T22:55:08.194Z,15.79
2018-10-16T22:57:35.568Z,15.72
2018-10-16T23:00:03.454Z,15.69
2018-10-16T23:02:30.848Z,15.71
2018-10-16T23:04:58.441Z,15.62
2018-10-16T23:07:25.823Z,15.71
2018-10-16T23:09:53.235Z,15.80
2018-10-16T23:12:20.761Z,15.72
2018-10-16T23:14:48.228Z,15.57
2018-10-16T23:17:15.671Z,15.44
2018-10-16T23:19:43.083Z,15.36
2018-10-16T23:22:10.495Z,15.31
2018-10-16T23:24:37.915Z,15.27
2018-10-16T23:27:11.978Z,15.22
2018-10-16T23:29:39.432Z,15.15
2018-10-16T23:32:06.950Z,15.06
2018-10-16T23:34:34.391Z,15.01
2018-10-16T23:37:01.908Z,14.93
2018-10-16T23:39:29.229Z,14.93
2018-10-16T23:41:56.629Z,14.97
2018-10-16T23:44:24.002Z,15.09
2018-10-16T23:46:51.432Z,15.08
2018-10-16T23:49:18.811Z,15.00
2018-10-16T23:51:46.472Z,14.98
2018-10-16T23:54:13.853Z,14.93
2018-10-16T23:56:41.298Z,14.87
2018-10-16T23:59:08.797Z,14.86
